DLH1A EGLL-EDDF
Flight info
| Callsign | DLH1A |
|---|---|
| Flight time | 1h 4m |
| Altitude | 35000 |
| Route | BPK Q295 MATCH DCT REDFA DCT TACHA DCT NOLRU DCT DIXAT DIXAT1A |
| Aircraft | A388/J-SADE2E3FGHIJ3J4J5M1RWXY/LB1D1 |
Departure
| Time | 2026-05-06 20:23 |
|---|---|
| Airport | London Heathrow Airport (EGLL) |
Arrival
| Time | 2026-05-06 21:28 |
|---|---|
| Airport | Frankfurt Main Airport (EDDF) |
| Time | Latitude | Longitude | Altitude | Speed | Heading |
|---|---|---|---|---|---|
| 2026-05-06 19:42 | 51.46980 | -0.48000 | 92 ft | 0 kts | 270° |
| 2026-05-06 20:14 | 51.46980 | -0.47996 | 92 ft | 2 kts | 269° |
| 2026-05-06 20:14 | 51.46980 | -0.47954 | 92 ft | 4 kts | 269° |
| 2026-05-06 20:15 | 51.46980 | -0.47914 | 93 ft | 2 kts | 270° |
| 2026-05-06 20:15 | 51.46982 | -0.47889 | 93 ft | 4 kts | 239° |
| 2026-05-06 20:15 | 51.47009 | -0.47870 | 93 ft | 2 kts | 179° |
| 2026-05-06 20:15 | 51.47023 | -0.47871 | 94 ft | 6 kts | 179° |
| 2026-05-06 20:20 | 51.47018 | -0.47871 | 92 ft | 3 kts | 179° |
| 2026-05-06 20:20 | 51.46986 | -0.47870 | 94 ft | 9 kts | 179° |
| 2026-05-06 20:20 | 51.46888 | -0.47867 | 93 ft | 19 kts | 179° |
| 2026-05-06 20:21 | 51.46735 | -0.47866 | 90 ft | 21 kts | 180° |
| 2026-05-06 20:21 | 51.46666 | -0.47944 | 90 ft | 12 kts | 267° |
| 2026-05-06 20:21 | 51.46654 | -0.48123 | 92 ft | 19 kts | 266° |
| 2026-05-06 20:21 | 51.46651 | -0.48362 | 93 ft | 24 kts | 269° |
| 2026-05-06 20:22 | 51.46650 | -0.48647 | 95 ft | 20 kts | 267° |
| 2026-05-06 20:22 | 51.46575 | -0.48767 | 93 ft | 18 kts | 193° |
| 2026-05-06 20:22 | 51.46478 | -0.48693 | 94 ft | 18 kts | 96° |
| 2026-05-06 20:22 | 51.46472 | -0.48403 | 95 ft | 36 kts | 89° |
| 2026-05-06 20:23 | 51.46487 | -0.47621 | 90 ft | 112 kts | 88° |
| 2026-05-06 20:23 | 51.46496 | -0.46042 | 101 ft | 163 kts | 89° |
| 2026-05-06 20:23 | 51.46432 | -0.44102 | 589 ft | 177 kts | 92° |
| 2026-05-06 20:23 | 51.46370 | -0.42088 | 1203 ft | 184 kts | 87° |
| 2026-05-06 20:24 | 51.46558 | -0.40056 | 1785 ft | 186 kts | 62° |
| 2026-05-06 20:24 | 51.47264 | -0.38358 | 2375 ft | 184 kts | 50° |
| 2026-05-06 20:24 | 51.48073 | -0.36780 | 2955 ft | 184 kts | 48° |
| 2026-05-06 20:24 | 51.48939 | -0.35137 | 3167 ft | 201 kts | 48° |
| 2026-05-06 20:25 | 51.49879 | -0.33359 | 3317 ft | 215 kts | 48° |
| 2026-05-06 20:25 | 51.50900 | -0.31411 | 3583 ft | 241 kts | 49° |
| 2026-05-06 20:25 | 51.51953 | -0.29194 | 4126 ft | 256 kts | 57° |
| 2026-05-06 20:25 | 51.52774 | -0.26622 | 4866 ft | 264 kts | 64° |
| 2026-05-06 20:26 | 51.53516 | -0.23886 | 5682 ft | 267 kts | 67° |
| 2026-05-06 20:26 | 51.54190 | -0.21103 | 5974 ft | 268 kts | 69° |
| 2026-05-06 20:26 | 51.55035 | -0.18454 | 5978 ft | 271 kts | 50° |
| 2026-05-06 20:26 | 51.56268 | -0.16166 | 5993 ft | 270 kts | 59° |
| 2026-05-06 20:27 | 51.56867 | -0.13341 | 6008 ft | 269 kts | 86° |
| 2026-05-06 20:27 | 51.56742 | -0.10468 | 6245 ft | 270 kts | 96° |
| 2026-05-06 20:27 | 51.56555 | -0.07385 | 7013 ft | 271 kts | 96° |
| 2026-05-06 20:27 | 51.56371 | -0.04402 | 7841 ft | 277 kts | 96° |
| 2026-05-06 20:28 | 51.56162 | -0.01288 | 8653 ft | 284 kts | 96° |
| 2026-05-06 20:28 | 51.55942 | 0.01776 | 9425 ft | 291 kts | 96° |
| 2026-05-06 20:28 | 51.55714 | 0.05014 | 10224 ft | 296 kts | 91° |
| 2026-05-06 20:28 | 51.56001 | 0.08423 | 10572 ft | 315 kts | 69° |
| 2026-05-06 20:29 | 51.57150 | 0.11519 | 10802 ft | 333 kts | 46° |
| 2026-05-06 20:29 | 51.58286 | 0.13059 | 11115 ft | 337 kts | 31° |
| 2026-05-06 20:29 | 51.60467 | 0.14444 | 11856 ft | 338 kts | 8° |
| 2026-05-06 20:29 | 51.62735 | 0.14689 | 12547 ft | 340 kts | 1° |
| 2026-05-06 20:30 | 51.65110 | 0.14952 | 13235 ft | 346 kts | 10° |
| 2026-05-06 20:30 | 51.69172 | 0.19027 | 14607 ft | 359 kts | 51° |
| 2026-05-06 20:30 | 51.70357 | 0.22605 | 15235 ft | 366 kts | 69° |
| 2026-05-06 20:31 | 51.71012 | 0.26420 | 15835 ft | 370 kts | 76° |
| 2026-05-06 20:31 | 51.71417 | 0.29276 | 16269 ft | 373 kts | 76° |
| 2026-05-06 20:31 | 51.72020 | 0.33268 | 16873 ft | 377 kts | 75° |
| 2026-05-06 20:31 | 51.72727 | 0.37407 | 17486 ft | 381 kts | 73° |
| 2026-05-06 20:32 | 51.73487 | 0.41524 | 18077 ft | 385 kts | 72° |
| 2026-05-06 20:32 | 51.74278 | 0.45661 | 18622 ft | 389 kts | 72° |
| 2026-05-06 20:32 | 51.75087 | 0.49843 | 19148 ft | 392 kts | 72° |
| 2026-05-06 20:32 | 51.75902 | 0.54061 | 19656 ft | 395 kts | 72° |
| 2026-05-06 20:33 | 51.76721 | 0.58309 | 20167 ft | 398 kts | 72° |
| 2026-05-06 20:33 | 51.77544 | 0.62596 | 20668 ft | 402 kts | 72° |
| 2026-05-06 20:33 | 51.78373 | 0.66930 | 21169 ft | 405 kts | 72° |
| 2026-05-06 20:33 | 51.79206 | 0.71291 | 21676 ft | 408 kts | 72° |
| 2026-05-06 20:34 | 51.80040 | 0.75673 | 22165 ft | 411 kts | 72° |
| 2026-05-06 20:34 | 51.80898 | 0.80191 | 22668 ft | 415 kts | 72° |
| 2026-05-06 20:34 | 51.81746 | 0.84667 | 23141 ft | 418 kts | 72° |
| 2026-05-06 20:34 | 51.82597 | 0.89168 | 23629 ft | 421 kts | 72° |
| 2026-05-06 20:35 | 51.83454 | 0.93714 | 24043 ft | 424 kts | 72° |
| 2026-05-06 20:35 | 51.84303 | 0.98224 | 24460 ft | 426 kts | 72° |
| 2026-05-06 20:35 | 51.85177 | 1.02884 | 24881 ft | 429 kts | 72° |
| 2026-05-06 20:35 | 51.86045 | 1.07520 | 25303 ft | 432 kts | 72° |
| 2026-05-06 20:36 | 51.86917 | 1.12190 | 25747 ft | 435 kts | 72° |
| 2026-05-06 20:36 | 51.87793 | 1.16891 | 26213 ft | 438 kts | 72° |
| 2026-05-06 20:36 | 51.88674 | 1.21630 | 26677 ft | 441 kts | 73° |
| 2026-05-06 20:36 | 51.89545 | 1.26334 | 27144 ft | 444 kts | 73° |
| 2026-05-06 20:37 | 51.90447 | 1.31214 | 27638 ft | 448 kts | 73° |
| 2026-05-06 20:37 | 51.91338 | 1.36047 | 28138 ft | 451 kts | 73° |
| 2026-05-06 20:37 | 51.92241 | 1.40954 | 28632 ft | 455 kts | 73° |
| 2026-05-06 20:37 | 51.93145 | 1.45886 | 29128 ft | 459 kts | 73° |
| 2026-05-06 20:38 | 51.94053 | 1.50850 | 29630 ft | 462 kts | 73° |
| 2026-05-06 20:38 | 51.94967 | 1.55862 | 30112 ft | 466 kts | 73° |
| 2026-05-06 20:38 | 51.95888 | 1.60924 | 30553 ft | 469 kts | 73° |
| 2026-05-06 20:38 | 51.96794 | 1.65921 | 31002 ft | 472 kts | 73° |
| 2026-05-06 20:39 | 51.97725 | 1.71068 | 31450 ft | 475 kts | 73° |
| 2026-05-06 20:39 | 51.98667 | 1.76287 | 31889 ft | 478 kts | 73° |
| 2026-05-06 20:39 | 51.99602 | 1.81490 | 32305 ft | 481 kts | 73° |
| 2026-05-06 20:39 | 52.00541 | 1.86721 | 32743 ft | 484 kts | 73° |
| 2026-05-06 20:40 | 52.01482 | 1.91988 | 33189 ft | 488 kts | 73° |
| 2026-05-06 20:40 | 52.02428 | 1.97289 | 33608 ft | 491 kts | 73° |
| 2026-05-06 20:40 | 52.03378 | 2.02633 | 34008 ft | 494 kts | 73° |
| 2026-05-06 20:40 | 52.04333 | 2.08021 | 34363 ft | 497 kts | 73° |
| 2026-05-06 20:41 | 52.05289 | 2.13431 | 34741 ft | 500 kts | 73° |
| 2026-05-06 20:41 | 52.06249 | 2.18883 | 34967 ft | 506 kts | 74° |
| 2026-05-06 20:41 | 52.07211 | 2.24356 | 35002 ft | 501 kts | 74° |
| 2026-05-06 20:42 | 52.09123 | 2.35297 | 35006 ft | 504 kts | 74° |
| 2026-05-06 20:42 | 52.11022 | 2.46222 | 35002 ft | 504 kts | 74° |
| 2026-05-06 20:43 | 52.13020 | 2.57227 | 34999 ft | 505 kts | 72° |
| 2026-05-06 20:43 | 52.14897 | 2.66896 | 35001 ft | 505 kts | 72° |
| 2026-05-06 20:44 | 52.17024 | 2.78019 | 34996 ft | 504 kts | 72° |
| 2026-05-06 20:44 | 52.19073 | 2.88891 | 34980 ft | 504 kts | 72° |
| 2026-05-06 20:45 | 52.21130 | 2.99889 | 34981 ft | 503 kts | 73° |
| 2026-05-06 20:45 | 52.23163 | 3.10820 | 34972 ft | 503 kts | 73° |
| 2026-05-06 20:46 | 52.24594 | 3.21953 | 34968 ft | 503 kts | 89° |
| 2026-05-06 20:46 | 52.24386 | 3.27626 | 34967 ft | 502 kts | 100° |
| 2026-05-06 20:46 | 52.23538 | 3.33043 | 34963 ft | 500 kts | 111° |
| 2026-05-06 20:47 | 52.20939 | 3.43643 | 34959 ft | 500 kts | 112° |
| 2026-05-06 20:47 | 52.18410 | 3.54207 | 34955 ft | 500 kts | 112° |
| 2026-05-06 20:48 | 52.15874 | 3.64753 | 34963 ft | 500 kts | 112° |
| 2026-05-06 20:48 | 52.13321 | 3.75291 | 34958 ft | 501 kts | 112° |
| 2026-05-06 20:49 | 52.10752 | 3.85837 | 34965 ft | 501 kts | 112° |
| 2026-05-06 20:49 | 52.08182 | 3.96337 | 34963 ft | 501 kts | 112° |
| 2026-05-06 20:50 | 52.06020 | 4.05137 | 34973 ft | 501 kts | 112° |
| 2026-05-06 20:50 | 52.03413 | 4.15695 | 34974 ft | 501 kts | 112° |
| 2026-05-06 20:51 | 52.00816 | 4.26161 | 34978 ft | 500 kts | 112° |
| 2026-05-06 20:51 | 51.98188 | 4.36705 | 34979 ft | 500 kts | 112° |
| 2026-05-06 20:52 | 51.95566 | 4.47179 | 34983 ft | 499 kts | 112° |
| 2026-05-06 20:52 | 51.92940 | 4.57613 | 34978 ft | 498 kts | 113° |
| 2026-05-06 20:53 | 51.90317 | 4.67991 | 34970 ft | 498 kts | 113° |
| 2026-05-06 20:53 | 51.87706 | 4.78272 | 34965 ft | 497 kts | 113° |
| 2026-05-06 20:54 | 51.85068 | 4.88613 | 34958 ft | 497 kts | 113° |
| 2026-05-06 20:54 | 51.82421 | 4.98941 | 34944 ft | 497 kts | 113° |
| 2026-05-06 20:55 | 51.79770 | 5.09236 | 34939 ft | 496 kts | 113° |
| 2026-05-06 20:55 | 51.77094 | 5.19582 | 34937 ft | 496 kts | 113° |
| 2026-05-06 20:56 | 51.74424 | 5.29857 | 34932 ft | 496 kts | 114° |
| 2026-05-06 20:56 | 51.71747 | 5.40113 | 34931 ft | 496 kts | 114° |
| 2026-05-06 20:57 | 51.69060 | 5.50363 | 34930 ft | 496 kts | 114° |
| 2026-05-06 20:57 | 51.66348 | 5.60658 | 34927 ft | 496 kts | 114° |
| 2026-05-06 20:58 | 51.63643 | 5.70882 | 34931 ft | 496 kts | 114° |
| 2026-05-06 20:58 | 51.60954 | 5.81001 | 34929 ft | 496 kts | 114° |
| 2026-05-06 20:59 | 51.58229 | 5.91210 | 34933 ft | 496 kts | 114° |
| 2026-05-06 20:59 | 51.55483 | 6.01452 | 34931 ft | 496 kts | 114° |
| 2026-05-06 21:00 | 51.52747 | 6.11613 | 34935 ft | 496 kts | 115° |
| 2026-05-06 21:00 | 51.50004 | 6.21771 | 34935 ft | 496 kts | 115° |
| 2026-05-06 21:01 | 51.47525 | 6.31655 | 34931 ft | 496 kts | 112° |
| 2026-05-06 21:01 | 51.45053 | 6.41940 | 34930 ft | 496 kts | 112° |
| 2026-05-06 21:02 | 51.42519 | 6.52277 | 34944 ft | 495 kts | 113° |
| 2026-05-06 21:02 | 51.39979 | 6.62532 | 34815 ft | 491 kts | 113° |
| 2026-05-06 21:02 | 51.38734 | 6.67540 | 34587 ft | 486 kts | 113° |
| 2026-05-06 21:03 | 51.37472 | 6.72602 | 34354 ft | 485 kts | 113° |
| 2026-05-06 21:03 | 51.36234 | 6.77559 | 34121 ft | 483 kts | 113° |
| 2026-05-06 21:03 | 51.34979 | 6.82570 | 33874 ft | 480 kts | 113° |
| 2026-05-06 21:03 | 51.33741 | 6.87507 | 33502 ft | 477 kts | 113° |
| 2026-05-06 21:04 | 51.32509 | 6.92407 | 32912 ft | 473 kts | 113° |
| 2026-05-06 21:04 | 51.31286 | 6.97258 | 32326 ft | 469 kts | 113° |
| 2026-05-06 21:04 | 51.30071 | 7.02068 | 31732 ft | 464 kts | 113° |
| 2026-05-06 21:04 | 51.28874 | 7.06798 | 31174 ft | 459 kts | 114° |
| 2026-05-06 21:05 | 51.27452 | 7.11292 | 30604 ft | 451 kts | 124° |
| 2026-05-06 21:05 | 51.25510 | 7.15151 | 30049 ft | 444 kts | 137° |
| 2026-05-06 21:05 | 51.23106 | 7.18228 | 29458 ft | 437 kts | 149° |
| 2026-05-06 21:05 | 51.20438 | 7.20417 | 28904 ft | 429 kts | 156° |
| 2026-05-06 21:06 | 51.17749 | 7.22405 | 28343 ft | 423 kts | 156° |
| 2026-05-06 21:06 | 51.15056 | 7.24428 | 27602 ft | 423 kts | 155° |
| 2026-05-06 21:06 | 51.12418 | 7.26460 | 26939 ft | 420 kts | 155° |
| 2026-05-06 21:06 | 51.09879 | 7.28626 | 26316 ft | 419 kts | 147° |
| 2026-05-06 21:07 | 51.07662 | 7.31680 | 25700 ft | 418 kts | 133° |
| 2026-05-06 21:07 | 51.06016 | 7.35479 | 25090 ft | 418 kts | 118° |
| 2026-05-06 21:07 | 51.05022 | 7.39847 | 24488 ft | 418 kts | 103° |
| 2026-05-06 21:07 | 51.04605 | 7.44428 | 23883 ft | 415 kts | 99° |
| 2026-05-06 21:08 | 51.03886 | 7.48827 | 23252 ft | 412 kts | 112° |
| 2026-05-06 21:08 | 51.02573 | 7.52825 | 22649 ft | 407 kts | 124° |
| 2026-05-06 21:08 | 51.00873 | 7.56410 | 22063 ft | 402 kts | 131° |
| 2026-05-06 21:08 | 50.99004 | 7.59679 | 21454 ft | 399 kts | 135° |
| 2026-05-06 21:09 | 50.97120 | 7.62880 | 20854 ft | 396 kts | 132° |
| 2026-05-06 21:09 | 50.95356 | 7.66216 | 20282 ft | 393 kts | 130° |
| 2026-05-06 21:09 | 50.93641 | 7.69550 | 19710 ft | 390 kts | 130° |
| 2026-05-06 21:09 | 50.91921 | 7.72863 | 19165 ft | 387 kts | 130° |
| 2026-05-06 21:10 | 50.90201 | 7.76130 | 18620 ft | 384 kts | 131° |
| 2026-05-06 21:10 | 50.88490 | 7.79348 | 18074 ft | 382 kts | 131° |
| 2026-05-06 21:10 | 50.86771 | 7.82561 | 17470 ft | 378 kts | 131° |
| 2026-05-06 21:10 | 50.85092 | 7.85689 | 16889 ft | 375 kts | 131° |
| 2026-05-06 21:11 | 50.83386 | 7.88863 | 16308 ft | 373 kts | 131° |
| 2026-05-06 21:11 | 50.81712 | 7.91974 | 15739 ft | 370 kts | 131° |
| 2026-05-06 21:11 | 50.80050 | 7.95060 | 15178 ft | 368 kts | 131° |
| 2026-05-06 21:11 | 50.78395 | 7.98131 | 14637 ft | 365 kts | 131° |
| 2026-05-06 21:12 | 50.76783 | 8.01117 | 14099 ft | 362 kts | 131° |
| 2026-05-06 21:12 | 50.75129 | 8.04178 | 13555 ft | 360 kts | 131° |
| 2026-05-06 21:12 | 50.73509 | 8.07172 | 12962 ft | 358 kts | 131° |
| 2026-05-06 21:12 | 50.71887 | 8.10166 | 12163 ft | 361 kts | 131° |
| 2026-05-06 21:13 | 50.70261 | 8.13162 | 11663 ft | 356 kts | 131° |
| 2026-05-06 21:13 | 50.68737 | 8.15973 | 11301 ft | 347 kts | 131° |
| 2026-05-06 21:13 | 50.67929 | 8.17461 | 11078 ft | 345 kts | 131° |
| 2026-05-06 21:13 | 50.67545 | 8.18168 | 11013 ft | 343 kts | 131° |
| 2026-05-06 21:14 | 50.65990 | 8.21025 | 10865 ft | 343 kts | 132° |
| 2026-05-06 21:14 | 50.64380 | 8.23981 | 10861 ft | 343 kts | 132° |
| 2026-05-06 21:14 | 50.62824 | 8.26833 | 10857 ft | 343 kts | 132° |
| 2026-05-06 21:14 | 50.61273 | 8.29676 | 10856 ft | 343 kts | 132° |
| 2026-05-06 21:15 | 50.59715 | 8.32528 | 10855 ft | 343 kts | 132° |
| 2026-05-06 21:15 | 50.58160 | 8.35368 | 10854 ft | 343 kts | 132° |
| 2026-05-06 21:15 | 50.56604 | 8.38211 | 10853 ft | 343 kts | 132° |
| 2026-05-06 21:15 | 50.55055 | 8.41036 | 10854 ft | 343 kts | 132° |
| 2026-05-06 21:16 | 50.53503 | 8.43863 | 10853 ft | 343 kts | 133° |
| 2026-05-06 21:16 | 50.51942 | 8.46704 | 10857 ft | 343 kts | 133° |
| 2026-05-06 21:16 | 50.50384 | 8.49537 | 10853 ft | 343 kts | 133° |
| 2026-05-06 21:16 | 50.48875 | 8.52277 | 10853 ft | 343 kts | 133° |
| 2026-05-06 21:17 | 50.47836 | 8.54163 | 10855 ft | 343 kts | 133° |
| 2026-05-06 21:17 | 50.46389 | 8.56785 | 10852 ft | 343 kts | 133° |
| 2026-05-06 21:17 | 50.44911 | 8.59461 | 10852 ft | 342 kts | 133° |
| 2026-05-06 21:17 | 50.43347 | 8.62289 | 10849 ft | 343 kts | 133° |
| 2026-05-06 21:18 | 50.41779 | 8.65125 | 10749 ft | 340 kts | 133° |
| 2026-05-06 21:18 | 50.40440 | 8.67544 | 10410 ft | 339 kts | 133° |
| 2026-05-06 21:18 | 50.38910 | 8.70305 | 10264 ft | 325 kts | 133° |
| 2026-05-06 21:18 | 50.37363 | 8.72776 | 10129 ft | 310 kts | 141° |
| 2026-05-06 21:19 | 50.35736 | 8.74862 | 10029 ft | 296 kts | 143° |
| 2026-05-06 21:19 | 50.34307 | 8.76690 | 9790 ft | 290 kts | 143° |
| 2026-05-06 21:19 | 50.32730 | 8.78708 | 9407 ft | 288 kts | 143° |
| 2026-05-06 21:19 | 50.31178 | 8.80686 | 8992 ft | 286 kts | 143° |
| 2026-05-06 21:20 | 50.29639 | 8.82642 | 8612 ft | 285 kts | 143° |
| 2026-05-06 21:20 | 50.28109 | 8.84584 | 8218 ft | 283 kts | 143° |
| 2026-05-06 21:20 | 50.26615 | 8.86476 | 7828 ft | 282 kts | 143° |
| 2026-05-06 21:20 | 50.25093 | 8.88395 | 7456 ft | 280 kts | 143° |
| 2026-05-06 21:21 | 50.23569 | 8.90262 | 7075 ft | 277 kts | 150° |
| 2026-05-06 21:21 | 50.21814 | 8.91422 | 6681 ft | 272 kts | 164° |
| 2026-05-06 21:21 | 50.20023 | 8.92371 | 6315 ft | 271 kts | 163° |
| 2026-05-06 21:21 | 50.18243 | 8.93329 | 5926 ft | 271 kts | 163° |
| 2026-05-06 21:22 | 50.16452 | 8.94190 | 5507 ft | 267 kts | 174° |
| 2026-05-06 21:22 | 50.14750 | 8.94036 | 5146 ft | 263 kts | 199° |
| 2026-05-06 21:22 | 50.13196 | 8.92595 | 5012 ft | 255 kts | 223° |
| 2026-05-06 21:22 | 50.11972 | 8.90590 | 4815 ft | 256 kts | 234° |
| 2026-05-06 21:23 | 50.11113 | 8.88160 | 4443 ft | 257 kts | 247° |
| 2026-05-06 21:23 | 50.10487 | 8.85601 | 4074 ft | 248 kts | 251° |
| 2026-05-06 21:23 | 50.09896 | 8.83147 | 3677 ft | 232 kts | 250° |
| 2026-05-06 21:23 | 50.09360 | 8.80917 | 3446 ft | 210 kts | 251° |
| 2026-05-06 21:24 | 50.08869 | 8.78894 | 3198 ft | 186 kts | 250° |
| 2026-05-06 21:24 | 50.08451 | 8.77160 | 2940 ft | 157 kts | 252° |
| 2026-05-06 21:24 | 50.08096 | 8.75687 | 2742 ft | 142 kts | 252° |
| 2026-05-06 21:24 | 50.07756 | 8.74272 | 2545 ft | 139 kts | 252° |
| 2026-05-06 21:25 | 50.07418 | 8.72862 | 2354 ft | 138 kts | 253° |
| 2026-05-06 21:25 | 50.07107 | 8.71569 | 2182 ft | 138 kts | 253° |
| 2026-05-06 21:25 | 50.06790 | 8.70255 | 2003 ft | 137 kts | 252° |
| 2026-05-06 21:25 | 50.06482 | 8.68975 | 1834 ft | 135 kts | 253° |
| 2026-05-06 21:26 | 50.06141 | 8.67551 | 1642 ft | 136 kts | 252° |
| 2026-05-06 21:26 | 50.05830 | 8.66259 | 1465 ft | 136 kts | 252° |
| 2026-05-06 21:26 | 50.05498 | 8.64877 | 1265 ft | 135 kts | 252° |
| 2026-05-06 21:26 | 50.05170 | 8.63506 | 1067 ft | 135 kts | 251° |
| 2026-05-06 21:27 | 50.04837 | 8.62131 | 881 ft | 135 kts | 252° |
| 2026-05-06 21:27 | 50.04515 | 8.60783 | 741 ft | 133 kts | 251° |
| 2026-05-06 21:27 | 50.04178 | 8.59372 | 566 ft | 155 kts | 250° |
| 2026-05-06 21:27 | 50.03813 | 8.57870 | 407 ft | 141 kts | 250° |
| 2026-05-06 21:28 | 50.03590 | 8.56939 | 363 ft | 131 kts | 250° |
| 2026-05-06 21:28 | 50.03361 | 8.55933 | 360 ft | 84 kts | 251° |
| 2026-05-06 21:28 | 50.03230 | 8.55391 | 359 ft | 30 kts | 248° |
| 2026-05-06 21:28 | 50.03211 | 8.55313 | 355 ft | 0 kts | 249° |